Time;durP1;ratioP1;P1;durP2;ratioP2;P2;SDS_P1;SDS_P2;PMS_P1;PMS_P2;Temp;Humidity;BMP_temperature;BMP_pressure;BME280_temperature;BME280_humidity;BME280_pressure;Samples;Min_cycle;Max_cycle;Signal;HPM_P1;HPM_P2
2023/07/17 00:00:04;;;;;;;8.00;4.27;;;20.60;33.80;;;;;;4961598;28;20560;-68
2023/07/17 00:02:31;;;;;;;7.67;4.37;;;20.60;33.70;;;;;;4966381;28;20485;-68
2023/07/17 00:04:57;;;;;;;10.73;4.93;;;20.70;33.40;;;;;;4968188;28;20881;-68
2023/07/17 00:07:25;;;;;;;9.87;4.30;;;20.70;33.60;;;;;;4967788;28;20473;-68
2023/07/17 00:09:52;;;;;;;7.73;4.63;;;20.70;33.70;;;;;;4965969;28;21234;-67
2023/07/17 00:12:19;;;;;;;7.40;4.33;;;20.60;34.00;;;;;;4968819;28;20473;-69
2023/07/17 00:14:46;;;;;;;10.40;4.77;;;20.60;33.80;;;;;;4969188;28;20485;-68
2023/07/17 00:17:12;;;;;;;13.33;5.37;;;20.60;33.90;;;;;;4970969;28;20492;-67
2023/07/17 00:19:39;;;;;;;11.70;5.60;;;20.60;34.40;;;;;;4966573;28;20469;-68
2023/07/17 00:22:07;;;;;;;9.50;4.57;;;20.60;34.30;;;;;;4961286;28;20470;-68
2023/07/17 00:24:35;;;;;;;12.33;4.77;;;20.60;34.50;;;;;;4959545;28;20500;-68
2023/07/17 00:27:02;;;;;;;10.13;4.73;;;20.60;34.60;;;;;;4962098;28;20465;-68
2023/07/17 00:29:29;;;;;;;8.03;5.30;;;20.60;34.50;;;;;;4967588;28;20469;-67
2023/07/17 00:31:56;;;;;;;7.27;4.30;;;20.60;34.50;;;;;;4964687;28;20477;-68
2023/07/17 00:34:23;;;;;;;12.63;4.60;;;20.60;34.20;;;;;;4967551;28;20490;-68
2023/07/17 00:36:50;;;;;;;10.53;4.70;;;20.60;34.30;;;;;;4966330;28;20469;-67
2023/07/17 00:39:18;;;;;;;11.00;4.87;;;20.60;34.40;;;;;;4967207;28;20477;-68
2023/07/17 00:41:47;;;;;;;15.03;5.53;;;20.70;34.10;;;;;;4963735;28;20847;-67
2023/07/17 00:44:13;;;;;;;12.13;4.83;;;20.60;34.30;;;;;;4964146;28;20489;-68
2023/07/17 00:46:41;;;;;;;15.30;4.97;;;20.60;34.60;;;;;;4968484;28;20461;-68
2023/07/17 00:49:08;;;;;;;11.13;3.67;;;20.60;35.00;;;;;;4969881;28;20466;-67
2023/07/17 00:51:37;;;;;;;12.93;5.30;;;20.60;34.70;;;;;;4962010;28;20486;-68
2023/07/17 00:54:04;;;;;;;9.80;4.97;;;20.60;34.90;;;;;;4963372;28;20481;-67
2023/07/17 00:56:31;;;;;;;9.17;4.93;;;20.50;35.30;;;;;;4967934;28;20466;-68
2023/07/17 00:59:00;;;;;;;7.97;4.63;;;20.50;35.00;;;;;;4965893;28;20491;-67
2023/07/17 01:01:27;;;;;;;14.37;5.07;;;20.50;35.00;;;;;;4967010;28;20473;-67
2023/07/17 01:03:55;;;;;;;10.47;4.70;;;20.50;34.90;;;;;;4972599;28;20489;-68
2023/07/17 01:06:23;;;;;;;11.60;4.67;;;20.50;34.50;;;;;;4970553;28;20461;-68
2023/07/17 01:08:50;;;;;;;9.20;4.73;;;20.50;34.30;;;;;;4972536;28;20800;-67
2023/07/17 01:11:17;;;;;;;7.83;4.40;;;20.60;33.60;;;;;;4975601;28;20469;-68
2023/07/17 01:13:45;;;;;;;20.80;5.23;;;20.60;33.40;;;;;;4966496;28;20486;-68
2023/07/17 01:16:13;;;;;;;11.33;5.20;;;20.60;33.20;;;;;;4968590;28;20962;-68
2023/07/17 01:18:41;;;;;;;11.37;4.00;;;20.60;32.70;;;;;;4970658;28;20485;-67
2023/07/17 01:21:09;;;;;;;11.33;5.13;;;20.60;32.30;;;;;;4967935;28;20833;-67
2023/07/17 01:23:37;;;;;;;7.63;4.30;;;20.60;32.20;;;;;;4967977;28;20911;-68
2023/07/17 01:26:12;;;;;;;10.90;4.93;;;20.60;32.00;;;;;;4973036;28;20520;-67
2023/07/17 01:28:39;;;;;;;8.40;3.70;;;20.70;31.90;;;;;;4972205;28;21288;-68
2023/07/17 01:31:06;;;;;;;13.27;4.60;;;20.60;31.90;;;;;;4972526;28;20501;-68
2023/07/17 01:33:33;;;;;;;14.70;4.70;;;20.60;32.20;;;;;;4974546;28;20491;-68
2023/07/17 01:36:00;;;;;;;12.10;4.80;;;20.60;32.80;;;;;;4970853;28;20468;-68
2023/07/17 01:38:27;;;;;;;7.90;4.50;;;20.60;32.70;;;;;;4972441;28;20496;-68
2023/07/17 01:40:55;;;;;;;12.67;4.50;;;20.60;32.30;;;;;;4971488;28;20473;-68
2023/07/17 01:43:21;;;;;;;9.23;4.30;;;20.60;32.10;;;;;;4972980;28;20493;-68
2023/07/17 01:45:48;;;;;;;9.97;4.13;;;20.60;32.00;;;;;;4969988;28;20465;-68
2023/07/17 01:48:17;;;;;;;11.60;4.17;;;20.60;31.90;;;;;;4973167;28;20464;-68
2023/07/17 01:50:44;;;;;;;11.90;5.10;;;20.60;32.10;;;;;;4975025;28;20516;-69
2023/07/17 01:53:11;;;;;;;9.87;4.33;;;20.60;32.10;;;;;;4968118;28;20472;-68
2023/07/17 01:55:37;;;;;;;11.57;4.53;;;20.60;32.10;;;;;;4968646;28;20473;-67
2023/07/17 01:58:05;;;;;;;7.80;3.97;;;20.50;31.90;;;;;;4965783;28;20488;-68
2023/07/17 02:00:32;;;;;;;10.10;4.07;;;20.50;31.90;;;;;;4969938;28;20468;-68
2023/07/17 02:02:59;;;;;;;10.33;4.70;;;20.50;32.00;;;;;;4970328;28;20880;-67
2023/07/17 02:05:25;;;;;;;10.30;4.83;;;20.50;32.00;;;;;;4967124;28;20489;-67
2023/07/17 02:07:52;;;;;;;10.20;4.70;;;20.50;32.20;;;;;;4972403;28;20469;-68
2023/07/17 02:10:19;;;;;;;10.17;4.57;;;20.50;32.20;;;;;;4967381;28;20500;-67
2023/07/17 02:12:46;;;;;;;8.67;4.67;;;20.50;32.30;;;;;;4971845;28;20466;-67
2023/07/17 02:15:14;;;;;;;9.43;4.60;;;20.40;33.00;;;;;;4979470;28;21164;-67
2023/07/17 02:17:41;;;;;;;8.73;4.50;;;20.40;33.30;;;;;;4980525;28;20485;-67
2023/07/17 02:20:10;;;;;;;15.90;5.40;;;20.40;33.20;;;;;;4969792;28;20459;-68
2023/07/17 02:22:37;;;;;;;9.43;4.53;;;20.40;33.00;;;;;;4973884;28;20924;-68
2023/07/17 02:25:06;;;;;;;8.43;4.60;;;20.40;33.00;;;;;;4971530;28;20524;-67
2023/07/17 02:27:33;;;;;;;11.17;4.30;;;20.40;32.80;;;;;;4972103;28;20497;-67
2023/07/17 02:29:59;;;;;;;8.13;4.73;;;20.50;32.80;;;;;;4967476;28;20963;-68
2023/07/17 02:32:29;;;;;;;11.23;4.50;;;20.50;32.70;;;;;;4966408;28;20489;-67
2023/07/17 02:34:56;;;;;;;11.90;5.67;;;20.50;33.00;;;;;;4970166;28;20494;-68
2023/07/17 02:37:23;;;;;;;12.67;5.17;;;20.50;33.10;;;;;;4972527;28;20480;-68
2023/07/17 02:39:49;;;;;;;11.63;4.83;;;20.50;33.40;;;;;;4971266;28;20465;-68
2023/07/17 02:42:16;;;;;;;9.43;4.53;;;20.50;33.50;;;;;;4973656;28;20478;-67
2023/07/17 02:44:45;;;;;;;12.70;5.50;;;20.50;33.40;;;;;;4968831;28;20481;-68
2023/07/17 02:47:12;;;;;;;10.33;4.67;;;20.50;33.20;;;;;;4970384;28;20465;-68
2023/07/17 02:49:40;;;;;;;11.70;5.13;;;20.50;33.20;;;;;;4971146;28;20709;-68
2023/07/17 02:52:07;;;;;;;7.87;4.23;;;20.50;33.10;;;;;;4970265;28;20476;-68
2023/07/17 02:54:36;;;;;;;13.67;5.37;;;20.60;33.10;;;;;;4970227;28;20492;-69
2023/07/17 02:57:03;;;;;;;10.00;5.07;;;20.60;33.30;;;;;;4967514;28;20464;-68
2023/07/17 02:59:30;;;;;;;15.57;6.00;;;20.60;33.50;;;;;;4971117;28;21053;-67
2023/07/17 03:01:57;;;;;;;11.83;5.20;;;20.60;33.70;;;;;;4964248;28;20501;-68
2023/07/17 03:04:24;;;;;;;12.43;5.60;;;20.60;34.00;;;;;;4969109;28;20505;-68
2023/07/17 03:06:52;;;;;;;13.40;5.50;;;20.60;34.30;;;;;;4961748;28;20472;-68
2023/07/17 03:09:19;;;;;;;15.27;5.90;;;20.70;34.50;;;;;;4970809;28;20862;-68
2023/07/17 03:11:46;;;;;;;21.73;6.10;;;20.70;34.40;;;;;;4967303;28;20462;-68
2023/07/17 03:14:13;;;;;;;20.10;6.87;;;20.80;34.70;;;;;;4969592;28;20505;-68
2023/07/17 03:16:40;;;;;;;14.60;6.03;;;20.80;35.20;;;;;;4963595;28;20476;-67
2023/07/17 03:19:07;;;;;;;10.27;6.20;;;20.80;35.90;;;;;;4966255;28;20938;-68
2023/07/17 03:21:34;;;;;;;13.30;5.50;;;20.80;36.00;;;;;;4958071;28;20470;-68
2023/07/17 03:24:02;;;;;;;11.80;5.57;;;20.90;36.40;;;;;;4963449;28;20489;-68
2023/07/17 03:26:29;;;;;;;12.50;6.27;;;20.80;36.40;;;;;;4967247;28;20466;-69
2023/07/17 03:28:55;;;;;;;9.70;5.83;;;20.70;36.60;;;;;;4968551;28;20477;-68
2023/07/17 03:31:22;;;;;;;8.67;5.03;;;20.70;36.90;;;;;;4969057;28;20482;-68
2023/07/17 03:33:49;;;;;;;9.40;5.60;;;20.60;37.40;;;;;;4966833;28;20486;-68
2023/07/17 03:36:15;;;;;;;10.23;5.80;;;20.60;37.50;;;;;;4969830;28;20489;-68
2023/07/17 03:38:42;;;;;;;11.63;5.40;;;20.60;37.40;;;;;;4970864;28;21161;-68
2023/07/17 03:41:10;;;;;;;13.30;5.10;;;20.60;37.80;;;;;;4962802;28;20473;-68
2023/07/17 03:43:37;;;;;;;101.63;10.57;;;20.50;37.50;;;;;;4965410;28;20505;-71
2023/07/17 03:46:04;;;;;;;10.07;5.00;;;20.50;36.30;;;;;;4967398;28;20477;-72
2023/07/17 03:48:30;;;;;;;11.53;4.90;;;20.50;34.80;;;;;;4964607;28;20461;-72
2023/07/17 03:50:57;;;;;;;15.67;4.97;;;20.50;34.20;;;;;;4970702;28;20465;-73
2023/07/17 03:53:26;;;;;;;13.33;5.40;;;20.50;32.90;;;;;;4966121;28;20485;-67
2023/07/17 03:55:52;;;;;;;9.03;4.10;;;20.50;32.00;;;;;;4962079;28;21025;-68
2023/07/17 03:58:21;;;;;;;8.30;4.03;;;20.30;32.30;;;;;;4966190;28;20500;-68
2023/07/17 04:00:48;;;;;;;8.00;4.10;;;20.20;32.10;;;;;;4967052;28;20480;-68
2023/07/17 04:03:15;;;;;;;9.53;3.77;;;20.10;31.90;;;;;;4973510;28;20516;-68
2023/07/17 04:05:43;;;;;;;10.13;5.27;;;20.10;31.70;;;;;;4964320;28;20477;-68
2023/07/17 04:08:10;;;;;;;10.47;5.03;;;20.00;32.10;;;;;;4969446;28;20552;-69
2023/07/17 04:10:36;;;;;;;8.57;4.53;;;19.90;32.50;;;;;;4969240;28;20462;-68
2023/07/17 04:13:03;;;;;;;9.90;4.90;;;19.90;32.70;;;;;;4967288;28;20473;-68
2023/07/17 04:15:31;;;;;;;8.83;4.50;;;19.90;33.00;;;;;;4967229;28;20565;-67
2023/07/17 04:17:58;;;;;;;8.73;5.30;;;19.90;33.80;;;;;;4965047;28;20837;-68
2023/07/17 04:20:25;;;;;;;11.90;6.03;;;19.80;34.10;;;;;;4970138;28;20469;-68
2023/07/17 04:22:52;;;;;;;16.77;6.43;;;19.80;34.40;;;;;;4968627;28;20470;-67
2023/07/17 04:25:18;;;;;;;15.33;6.17;;;19.80;34.70;;;;;;4967215;28;20497;-68
2023/07/17 04:27:45;;;;;;;13.90;5.80;;;19.90;35.30;;;;;;4969507;28;20489;-67
2023/07/17 04:30:12;;;;;;;14.23;6.07;;;19.90;35.50;;;;;;4967462;28;20462;-68
2023/07/17 04:32:40;;;;;;;11.13;4.77;;;20.00;35.60;;;;;;4963763;28;20981;-67
2023/07/17 04:35:08;;;;;;;19.03;7.30;;;20.00;35.60;;;;;;4963408;28;21012;-68
2023/07/17 04:37:34;;;;;;;8.33;4.83;;;20.00;35.60;;;;;;4968462;28;20477;-68
2023/07/17 04:40:01;;;;;;;8.97;4.83;;;20.10;35.70;;;;;;4964833;28;20493;-69
2023/07/17 04:42:28;;;;;;;12.37;4.63;;;20.40;35.50;;;;;;4970108;28;20470;-68
2023/07/17 04:44:55;;;;;;;10.40;5.07;;;21.00;34.00;;;;;;4968859;28;21005;-68
2023/07/17 04:47:21;;;;;;;14.27;5.07;;;21.40;32.30;;;;;;4962708;28;20469;-68
2023/07/17 04:49:53;;;;;;;8.73;4.30;;;21.90;30.90;;;;;;4965406;28;20465;-69
2023/07/17 04:52:19;;;;;;;16.50;4.53;;;22.10;29.70;;;;;;4969865;28;20745;-68
2023/07/17 04:54:46;;;;;;;10.07;4.73;;;21.80;29.10;;;;;;4968055;28;20516;-68
2023/07/17 04:57:13;;;;;;;12.10;4.77;;;21.70;29.80;;;;;;4969528;28;20476;-68
2023/07/17 04:59:39;;;;;;;10.57;4.53;;;22.00;30.40;;;;;;4967158;28;20489;-70
2023/07/17 05:02:06;;;;;;;9.23;4.60;;;23.20;27.80;;;;;;4961670;28;20489;-67
2023/07/17 05:04:33;;;;;;;11.17;4.40;;;24.10;23.30;;;;;;4967901;28;20500;-68
2023/07/17 05:07:01;;;;;;;8.07;4.30;;;24.00;22.00;;;;;;4969888;28;20465;-67
2023/07/17 05:09:27;;;;;;;9.73;4.47;;;23.50;22.80;;;;;;4961963;28;20482;-68
2023/07/17 05:11:55;;;;;;;10.53;4.30;;;23.20;23.70;;;;;;4968671;28;20981;-68
2023/07/17 05:14:22;;;;;;;10.47;4.40;;;23.00;24.90;;;;;;4964538;28;20490;-69
2023/07/17 05:16:49;;;;;;;10.83;3.80;;;22.90;25.30;;;;;;4963120;28;20984;-69
2023/07/17 05:19:15;;;;;;;9.40;4.47;;;22.70;25.70;;;;;;5010780;23;20505;-68
2023/07/17 05:21:42;;;;;;;7.50;3.97;;;22.50;25.90;;;;;;5005053;28;20467;-69
2023/07/17 05:24:10;;;;;;;8.10;4.33;;;22.30;26.30;;;;;;5005760;28;20484;-68
2023/07/17 05:26:37;;;;;;;11.47;4.53;;;22.10;26.60;;;;;;5008016;28;20607;-68
2023/07/17 05:29:04;;;;;;;9.33;4.00;;;22.10;27.10;;;;;;5001618;28;20452;-69
2023/07/17 05:31:31;;;;;;;7.37;3.60;;;22.20;27.70;;;;;;5002879;28;20485;-69
2023/07/17 05:33:58;;;;;;;11.43;4.67;;;22.90;26.60;;;;;;5005687;28;20526;-68
2023/07/17 05:36:24;;;;;;;10.80;4.00;;;23.10;24.90;;;;;;5003818;28;20822;-69
2023/07/17 05:38:51;;;;;;;7.20;3.80;;;23.00;24.40;;;;;;5002577;28;20485;-69
2023/07/17 05:41:19;;;;;;;7.70;4.13;;;22.90;24.70;;;;;;5003816;28;20875;-69
2023/07/17 05:43:46;;;;;;;8.93;3.90;;;23.00;24.60;;;;;;5004691;28;20487;-68
2023/07/17 05:46:12;;;;;;;9.87;4.37;;;23.10;24.00;;;;;;5003521;28;20464;-68
2023/07/17 05:48:39;;;;;;;8.83;4.30;;;23.20;23.60;;;;;;5011494;28;20458;-69
2023/07/17 05:51:08;;;;;;;8.23;4.03;;;23.20;23.40;;;;;;5010190;28;20460;-69
2023/07/17 05:53:35;;;;;;;10.70;4.73;;;23.20;23.60;;;;;;5010150;28;20529;-69
2023/07/17 05:56:02;;;;;;;10.40;4.70;;;23.20;23.40;;;;;;5010117;28;20530;-69
2023/07/17 05:58:30;;;;;;;9.27;4.13;;;23.30;23.40;;;;;;5007164;28;20464;-68
2023/07/17 06:00:57;;;;;;;8.60;4.30;;;23.60;24.10;;;;;;5007967;28;20480;-68
2023/07/17 06:03:24;;;;;;;7.27;3.70;;;26.10;19.70;;;;;;5005695;28;20486;-68
2023/07/17 06:05:50;;;;;;;7.97;3.83;;;28.10;14.20;;;;;;5009822;28;20467;-68
2023/07/17 06:08:17;;;;;;;7.37;4.03;;;29.60;9.50;;;;;;5009609;28;20999;-68
2023/07/17 06:10:44;;;;;;;7.90;3.50;;;31.10;7.20;;;;;;5010539;28;20455;-69
2023/07/17 06:13:12;;;;;;;8.50;4.00;;;33.10;3.10;;;;;;5008660;28;20831;-68
2023/07/17 06:15:41;;;;;;;7.90;3.73;;;34.80;1.00;;;;;;5010846;28;20459;-68
2023/07/17 06:18:08;;;;;;;6.87;2.93;;;36.30;1.00;;;;;;5010221;28;20463;-69
2023/07/17 06:20:34;;;;;;;6.83;3.33;;;37.50;1.00;;;;;;5008282;28;20723;-68
2023/07/17 06:23:01;;;;;;;7.60;3.13;;;38.60;1.00;;;;;;5009385;28;20464;-69
2023/07/17 06:25:28;;;;;;;6.50;3.13;;;39.60;1.00;;;;;;5007892;28;20464;-69
2023/07/17 06:27:54;;;;;;;7.60;3.27;;;40.50;1.00;;;;;;5010350;28;20467;-69
2023/07/17 06:30:21;;;;;;;5.90;2.63;;;41.30;1.00;;;;;;5009536;28;20464;-69
2023/07/17 06:32:49;;;;;;;5.50;2.77;;;42.20;1.00;;;;;;5008413;28;20495;-69
2023/07/17 06:35:16;;;;;;;5.40;2.30;;;42.70;1.00;;;;;;5008255;28;20479;-69
2023/07/17 06:37:43;;;;;;;5.50;3.17;;;43.30;1.00;;;;;;5005938;28;20468;-69
2023/07/17 06:40:12;;;;;;;8.20;3.00;;;43.90;1.00;;;;;;5010491;28;21090;-69
2023/07/17 06:42:38;;;;;;;5.83;2.93;;;44.30;1.00;;;;;;5003754;28;20468;-69
2023/07/17 06:45:06;;;;;;;6.47;2.53;;;44.80;1.00;;;;;;5009515;28;20483;-69
2023/07/17 06:47:33;;;;;;;7.30;3.03;;;45.30;1.00;;;;;;5008691;28;21066;-69
2023/07/17 06:50:01;;;;;;;5.27;2.30;;;45.70;1.00;;;;;;5010420;28;20493;-68
2023/07/17 06:52:28;;;;;;;6.33;2.90;;;46.10;1.00;;;;;;5008916;28;21035;-68
2023/07/17 06:54:55;;;;;;;5.50;2.80;;;46.40;1.00;;;;;;5010966;28;20486;-68
2023/07/17 06:57:22;;;;;;;6.00;3.47;;;46.80;1.00;;;;;;5007808;28;20467;-68
2023/07/17 06:59:49;;;;;;;5.67;2.70;;;47.30;1.00;;;;;;5009995;28;20487;-69
2023/07/17 07:02:15;;;;;;;5.17;2.60;;;47.60;1.00;;;;;;5006946;28;20479;-69
2023/07/17 07:04:42;;;;;;;4.80;2.33;;;47.90;1.00;;;;;;5005380;28;20904;-68
2023/07/17 07:07:10;;;;;;;6.70;3.00;;;48.30;1.00;;;;;;5006505;28;20495;-68
2023/07/17 07:09:37;;;;;;;5.67;2.40;;;48.60;1.00;;;;;;5009001;28;20471;-68
2023/07/17 07:12:04;;;;;;;5.43;2.40;;;49.00;1.00;;;;;;5007367;28;20463;-69
2023/07/17 07:14:31;;;;;;;5.37;2.50;;;49.40;1.00;;;;;;5008705;28;20483;-69
2023/07/17 07:16:58;;;;;;;6.10;3.10;;;49.70;1.00;;;;;;5004987;28;20467;-69
2023/07/17 07:19:24;;;;;;;4.90;2.60;;;49.80;1.00;;;;;;5007530;28;20483;-69
2023/07/17 07:21:51;;;;;;;5.23;2.87;;;50.20;1.00;;;;;;5011677;28;20466;-69
2023/07/17 07:24:19;;;;;;;6.13;2.83;;;50.50;1.00;;;;;;5003856;28;21137;-69
2023/07/17 07:26:46;;;;;;;4.80;2.60;;;50.80;1.00;;;;;;5004432;28;20467;-69
2023/07/17 07:29:12;;;;;;;6.37;3.00;;;51.00;1.00;;;;;;5009165;28;20491;-69
2023/07/17 07:31:40;;;;;;;5.10;2.40;;;51.50;1.00;;;;;;4996697;28;20475;-69
2023/07/17 07:34:06;;;;;;;4.63;2.67;;;51.70;1.00;;;;;;4986092;28;21216;-70
2023/07/17 07:36:33;;;;;;;10.00;2.83;;;52.10;1.00;;;;;;4988739;28;20474;-70
2023/07/17 07:39:00;;;;;;;6.90;3.10;;;52.30;1.00;;;;;;4989722;28;20468;-70
2023/07/17 07:41:28;;;;;;;6.10;2.80;;;52.30;1.00;;;;;;4989177;28;20488;-70
2023/07/17 07:43:54;;;;;;;5.07;2.40;;;52.10;1.00;;;;;;4987929;28;20484;-69
2023/07/17 07:46:21;;;;;;;4.47;2.37;;;51.00;1.00;;;;;;4989093;28;20954;-69
2023/07/17 07:48:48;;;;;;;6.20;3.10;;;51.10;1.00;;;;;;4988264;28;20468;-70
2023/07/17 07:51:14;;;;;;;6.20;2.40;;;51.00;1.00;;;;;;4985972;28;20476;-69
2023/07/17 07:53:41;;;;;;;6.10;2.67;;;50.00;1.00;;;;;;4986019;28;20488;-70
2023/07/17 07:56:08;;;;;;;5.30;2.70;;;50.60;1.00;;;;;;4989505;28;20468;-69
2023/07/17 07:58:36;;;;;;;5.50;2.63;;;51.20;1.00;;;;;;4988008;28;20464;-69
2023/07/17 08:01:03;;;;;;;5.50;2.70;;;51.80;1.00;;;;;;4985999;28;20480;-70
2023/07/17 08:03:29;;;;;;;6.60;2.87;;;52.40;1.00;;;;;;4988327;28;20496;-70
2023/07/17 08:05:56;;;;;;;5.53;2.60;;;52.80;1.00;;;;;;4988948;28;20463;-70
2023/07/17 08:08:23;;;;;;;5.00;2.50;;;52.70;1.00;;;;;;4986554;28;20465;-70
2023/07/17 08:10:53;;;;;;;7.10;3.00;;;52.10;1.00;;;;;;4986530;28;20480;-70
2023/07/17 08:13:20;;;;;;;6.30;2.80;;;49.90;1.00;;;;;;4986168;28;20512;-69
2023/07/17 08:15:49;;;;;;;5.60;2.60;;;49.50;1.00;;;;;;4988874;28;21204;-70
2023/07/17 08:18:16;;;;;;;4.83;2.63;;;49.20;1.00;;;;;;4988716;28;20471;-70
2023/07/17 08:20:43;;;;;;;5.87;2.73;;;49.90;1.00;;;;;;4982536;28;20463;-69
2023/07/17 08:23:10;;;;;;;6.60;3.47;;;49.70;1.00;;;;;;4986792;28;20500;-70
2023/07/17 08:25:37;;;;;;;6.70;3.07;;;49.00;1.00;;;;;;4987227;28;20469;-70
2023/07/17 08:28:04;;;;;;;6.03;3.00;;;47.60;1.00;;;;;;4988616;28;20468;-70
2023/07/17 08:30:30;;;;;;;9.30;3.43;;;47.70;1.00;;;;;;4990288;28;21158;-70
2023/07/17 08:32:58;;;;;;;6.43;3.10;;;49.00;1.00;;;;;;5005645;28;20933;-71
2023/07/17 08:35:25;;;;;;;4.67;2.20;;;50.10;1.00;;;;;;5001509;28;20468;-69
2023/07/17 08:37:52;;;;;;;5.30;2.33;;;51.00;1.00;;;;;;5004511;28;20456;-69
2023/07/17 08:40:19;;;;;;;8.43;3.00;;;50.90;1.00;;;;;;5008236;28;20464;-69
2023/07/17 08:42:46;;;;;;;6.20;2.77;;;49.90;1.00;;;;;;5003505;28;20988;-69
2023/07/17 08:45:14;;;;;;;6.33;3.03;;;48.40;1.00;;;;;;5004201;28;20534;-69
2023/07/17 08:47:41;;;;;;;7.53;2.90;;;47.10;1.00;;;;;;5007131;28;20499;-70
2023/07/17 08:50:10;;;;;;;6.83;3.03;;;45.30;1.00;;;;;;5007723;28;20503;-69
2023/07/17 08:52:37;;;;;;;6.83;3.23;;;44.60;1.00;;;;;;5006532;28;20859;-69
2023/07/17 08:55:04;;;;;;;5.63;3.10;;;44.10;1.00;;;;;;5004411;28;20491;-69
2023/07/17 08:57:33;;;;;;;5.30;3.03;;;44.80;1.00;;;;;;4999698;28;20460;-69
2023/07/17 09:00:00;;;;;;;6.60;2.90;;;44.80;1.00;;;;;;5008587;28;20823;-69
2023/07/17 09:02:28;;;;;;;6.60;3.00;;;46.50;1.00;;;;;;4988588;28;20472;-69
2023/07/17 09:04:54;;;;;;;6.67;3.20;;;47.50;1.00;;;;;;4986896;28;20511;-68
2023/07/17 09:07:22;;;;;;;5.60;3.17;;;46.50;1.00;;;;;;4984675;28;20802;-69
2023/07/17 09:10:14;;;;;;;7.27;3.10;;;45.20;1.00;;;;;;4988520;28;21233;-68
2023/07/17 09:12:42;;;;;;;7.30;3.13;;;44.10;1.00;;;;;;4986362;28;21023;-68
2023/07/17 09:15:09;;;;;;;7.53;2.87;;;44.30;1.00;;;;;;4987797;28;20488;-69
2023/07/17 09:17:37;;;;;;;7.07;3.77;;;45.60;1.00;;;;;;4988415;28;20487;-68
2023/07/17 09:20:08;;;;;;;7.40;2.97;;;47.10;1.00;;;;;;4987121;28;20460;-68
2023/07/17 09:22:38;;;;;;;7.17;2.90;;;46.90;1.00;;;;;;4991923;28;20470;-69
2023/07/17 09:25:05;;;;;;;6.30;2.60;;;46.70;1.00;;;;;;4992383;28;20484;-68
2023/07/17 09:27:43;;;;;;;7.60;3.10;;;48.40;1.00;;;;;;4984753;28;20459;-68
2023/07/17 09:30:11;;;;;;;5.10;2.53;;;49.80;1.00;;;;;;4990590;28;20524;-69
2023/07/17 09:32:38;;;;;;;6.53;2.73;;;51.00;1.00;;;;;;4989806;28;20914;-69
2023/07/17 09:35:05;;;;;;;6.17;2.77;;;51.80;1.00;;;;;;4989844;28;20487;-69
2023/07/17 09:37:32;;;;;;;8.60;3.43;;;52.40;1.00;;;;;;4990900;28;20456;-69
2023/07/17 09:40:02;;;;;;;6.70;3.00;;;52.60;1.00;;;;;;4989782;28;20467;-69
2023/07/17 09:42:30;;;;;;;6.07;3.27;;;52.30;1.00;;;;;;4991420;28;20465;-69
2023/07/17 09:44:56;;;;;;;6.20;2.87;;;50.90;1.00;;;;;;4991543;28;20578;-69
2023/07/17 09:47:23;;;;;;;6.23;3.23;;;48.50;1.00;;;;;;4988171;28;20472;-69
2023/07/17 09:49:51;;;;;;;5.83;3.00;;;46.40;1.00;;;;;;4991507;28;20475;-68
2023/07/17 09:52:19;;;;;;;6.40;3.20;;;44.60;1.00;;;;;;4991772;28;20468;-68
2023/07/17 09:54:48;;;;;;;8.33;3.43;;;43.10;1.00;;;;;;4989635;28;20484;-68
2023/07/17 09:57:26;;;;;;;5.07;2.93;;;41.90;1.00;;;;;;4988099;28;20464;-68
2023/07/17 09:59:55;;;;;;;9.43;4.17;;;40.80;1.00;;;;;;4991487;28;20456;-68
2023/07/17 10:02:24;;;;;;;6.40;3.43;;;40.00;1.00;;;;;;4987241;28;20465;-69
2023/07/17 10:04:53;;;;;;;7.97;3.67;;;39.30;1.00;;;;;;4988620;28;20499;-69
2023/07/17 10:07:20;;;;;;;8.00;3.23;;;38.60;1.00;;;;;;4983657;28;21123;-69
2023/07/17 10:09:49;;;;;;;5.50;2.93;;;37.90;1.00;;;;;;4984759;28;20513;-70
2023/07/17 10:12:18;;;;;;;8.40;3.43;;;37.30;1.00;;;;;;4983027;28;20496;-70
2023/07/17 10:14:46;;;;;;;5.87;3.57;;;36.80;1.00;;;;;;4987444;28;20486;-70
2023/07/17 10:17:35;;;;;;;10.00;3.87;;;36.30;1.00;;;;;;4981732;28;20938;-70
2023/07/17 10:20:04;;;;;;;6.70;3.43;;;35.80;1.00;;;;;;4985243;28;20487;-70
2023/07/17 10:22:35;;;;;;;5.63;3.47;;;35.30;1.00;;;;;;4990742;28;20468;-69
2023/07/17 10:25:26;;;;;;;6.97;3.80;;;35.00;1.00;;;;;;4986876;28;20481;-69
2023/07/17 10:27:58;;;;;;;6.70;3.33;;;34.80;1.00;;;;;;4984962;28;20465;-70
2023/07/17 10:30:27;;;;;;;6.30;3.63;;;34.50;1.00;;;;;;4985640;28;20489;-70
2023/07/17 10:33:13;;;;;;;7.50;4.00;;;34.30;1.00;;;;;;5008363;28;20599;-70
2023/07/17 10:35:48;;;;;;;6.83;4.00;;;34.00;1.00;;;;;;5007102;28;20468;-69
2023/07/17 10:38:16;;;;;;;7.27;4.17;;;33.70;1.00;;;;;;5010180;28;20465;-70
2023/07/17 10:40:43;;;;;;;5.97;3.33;;;33.40;1.00;;;;;;5008150;28;20459;-69
2023/07/17 10:43:19;;;;;;;10.60;4.53;;;33.10;1.00;;;;;;5006747;28;20470;-69
2023/07/17 10:45:47;;;;;;;7.87;3.40;;;32.90;1.00;;;;;;5003297;28;20539;-69
2023/07/17 10:48:14;;;;;;;9.10;3.83;;;32.70;1.00;;;;;;5010161;28;20463;-69
2023/07/17 10:50:48;;;;;;;9.63;3.70;;;32.50;1.00;;;;;;5009830;28;20487;-69
2023/07/17 10:53:15;;;;;;;6.70;3.63;;;32.30;1.00;;;;;;5005886;28;20585;-69
2023/07/17 10:55:42;;;;;;;7.10;3.73;;;32.10;1.00;;;;;;4994091;28;20471;-69
2023/07/17 10:58:09;;;;;;;8.60;3.90;;;31.90;1.00;;;;;;5002953;28;20952;-70
2023/07/17 11:00:41;;;;;;;8.33;3.90;;;31.80;1.00;;;;;;4993896;28;20532;-70
2023/07/17 11:03:08;;;;;;;6.93;3.50;;;31.70;1.00;;;;;;4980536;28;20564;-72
2023/07/17 11:05:37;;;;;;;7.20;4.30;;;31.60;1.00;;;;;;4986729;28;20471;-70
2023/07/17 11:08:05;;;;;;;8.40;3.90;;;31.40;1.00;;;;;;4987160;28;20493;-71
2023/07/17 11:10:32;;;;;;;6.10;3.53;;;31.30;1.00;;;;;;4986941;28;20492;-69
2023/07/17 11:13:03;;;;;;;8.73;3.90;;;31.10;1.00;;;;;;4989714;28;20941;-71
2023/07/17 11:15:32;;;;;;;7.93;3.57;;;30.90;1.00;;;;;;4987958;28;21249;-73
2023/07/17 11:18:01;;;;;;;7.70;4.10;;;30.90;1.00;;;;;;5008714;23;20550;-64
2023/07/17 11:20:28;;;;;;;6.00;3.47;;;30.90;1.00;;;;;;5003853;28;20475;-63
2023/07/17 11:22:55;;;;;;;6.90;4.00;;;30.80;1.00;;;;;;5002675;28;20468;-64
2023/07/17 11:25:25;;;;;;;8.57;4.00;;;30.70;1.00;;;;;;5006371;28;20464;-63
2023/07/17 11:27:53;;;;;;;7.40;3.70;;;30.60;1.00;;;;;;5007620;28;20463;-64
2023/07/17 11:30:21;;;;;;;9.07;3.90;;;30.50;1.00;;;;;;5010338;28;21073;-63
2023/07/17 11:32:56;;;;;;;6.87;4.00;;;30.60;1.00;;;;;;5025494;28;20832;-63
2023/07/17 11:35:24;;;;;;;8.23;4.17;;;30.50;1.00;;;;;;5020914;28;20509;-64
2023/07/17 11:37:51;;;;;;;7.63;4.00;;;30.40;1.00;;;;;;5025782;28;20467;-63
2023/07/17 11:40:18;;;;;;;8.53;3.27;;;30.40;1.00;;;;;;5025695;28;20459;-64
2023/07/17 11:42:55;;;;;;;9.53;4.40;;;30.50;1.00;;;;;;5025792;28;20459;-63
2023/07/17 11:45:25;;;;;;;8.43;4.33;;;30.60;1.00;;;;;;5022995;28;20544;-63
2023/07/17 11:47:53;;;;;;;7.83;3.70;;;30.70;1.00;;;;;;5022291;28;20896;-63
2023/07/17 11:50:21;;;;;;;8.37;4.27;;;30.70;1.00;;;;;;5022600;28;20468;-65
2023/07/17 11:52:49;;;;;;;6.40;3.70;;;30.70;1.00;;;;;;5017146;28;20469;-65
2023/07/17 11:55:21;;;;;;;9.37;3.67;;;30.60;1.00;;;;;;5018653;28;20486;-69
2023/07/17 11:57:51;;;;;;;7.50;4.20;;;30.50;1.00;;;;;;5019636;28;20572;-68
2023/07/17 12:00:20;;;;;;;8.37;4.33;;;30.40;1.00;;;;;;5019277;28;20494;-69
2023/07/17 12:02:47;;;;;;;9.13;4.07;;;30.30;1.00;;;;;;5023727;28;20858;-70
2023/07/17 12:05:14;;;;;;;8.00;4.47;;;30.20;1.00;;;;;;5022456;28;20491;-70
2023/07/17 12:07:40;;;;;;;7.60;3.87;;;30.10;1.00;;;;;;5016367;28;20467;-64
2023/07/17 12:10:10;;;;;;;7.60;4.20;;;30.00;1.00;;;;;;5025772;28;20463;-63
2023/07/17 12:12:37;;;;;;;7.73;3.53;;;29.90;1.00;;;;;;5023953;28;20559;-63
2023/07/17 12:15:06;;;;;;;6.80;4.10;;;29.70;1.00;;;;;;5022050;28;20482;-63
2023/07/17 12:17:33;;;;;;;7.50;3.80;;;29.50;1.00;;;;;;5021929;28;20972;-63
2023/07/17 12:20:00;;;;;;;7.73;4.50;;;29.40;1.00;;;;;;5023721;28;20471;-64
2023/07/17 12:22:26;;;;;;;8.27;4.27;;;29.30;1.00;;;;;;5022737;28;20783;-62
2023/07/17 12:24:53;;;;;;;10.03;4.43;;;29.20;1.00;;;;;;5023658;28;20494;-63
2023/07/17 12:27:21;;;;;;;8.40;4.30;;;29.20;1.00;;;;;;5025346;28;20463;-62
2023/07/17 12:29:48;;;;;;;7.10;4.00;;;29.20;1.00;;;;;;5021618;28;20459;-63
2023/07/17 12:32:15;;;;;;;8.43;4.33;;;29.20;1.00;;;;;;5022707;28;20494;-62
2023/07/17 12:34:41;;;;;;;9.03;4.23;;;29.20;1.00;;;;;;5021830;28;20497;-61
2023/07/17 12:37:08;;;;;;;7.70;4.20;;;29.20;1.00;;;;;;5026043;28;20467;-61
2023/07/17 12:39:35;;;;;;;7.20;4.50;;;29.20;1.00;;;;;;5022611;28;20542;-62
2023/07/17 12:42:02;;;;;;;7.10;3.63;;;29.10;1.00;;;;;;5021619;28;20451;-61
2023/07/17 12:44:30;;;;;;;7.20;4.10;;;29.10;1.00;;;;;;5023395;28;20846;-62
2023/07/17 12:46:57;;;;;;;9.90;4.87;;;29.00;1.00;;;;;;5023746;28;20465;-61
2023/07/17 12:49:24;;;;;;;11.07;5.10;;;29.00;1.00;;;;;;5024481;28;20482;-63